Time;durP1;ratioP1;P1;durP2;ratioP2;P2;SDS_P1;SDS_P2;PMS_P1;PMS_P2;Temp;Humidity;BMP_temperature;BMP_pressure;BME280_temperature;BME280_humidity;BME280_pressure;Samples;Min_cycle;Max_cycle;Signal;HPM_P1;HPM_P2
2022/02/04 00:04:59;;;;;;;;;;;8.00;98.40;;;;;;5068705;28;19966;-76
2022/02/04 00:20:45;;;;;;;;;;;7.90;98.60;;;;;;5069982;28;20377;-76
2022/02/04 00:23:18;;;;;;;;;;;7.90;98.60;;;;;;5068281;28;20029;-76
2022/02/04 00:28:26;;;;;;;;;;;7.90;98.60;;;;;;5069590;28;20415;-76
2022/02/04 00:31:16;;;;;;;;;;;7.90;98.60;;;;;;5052625;28;19952;-76
2022/02/04 00:33:45;;;;;;;;;;;7.90;98.60;;;;;;5067900;28;19967;-76
2022/02/04 00:36:26;;;;;;;;;;;7.80;98.60;;;;;;5069240;28;20374;-77
2022/02/04 00:38:55;;;;;;;;;;;7.90;98.70;;;;;;5069251;28;19912;-76
2022/02/04 00:41:25;;;;;;;;;;;7.80;98.70;;;;;;5069595;28;19920;-76
2022/02/04 00:43:53;;;;;;;;;;;7.80;98.70;;;;;;5068928;28;19908;-76
2022/02/04 00:47:04;;;;;;;;;;;7.80;98.70;;;;;;5068961;28;20354;-76
2022/02/04 00:49:22;;;;;;;;;;;7.80;98.70;;;;;;5057866;28;20046;-75
2022/02/04 00:52:00;;;;;;;;;;;7.80;98.60;;;;;;5067758;28;19912;-76
2022/02/04 01:26:30;;;;;;;;;;;7.50;98.70;;;;;;5068537;28;20267;-76
2022/02/04 01:28:55;;;;;;;;;;;7.50;98.70;;;;;;5068149;28;19921;-76
2022/02/04 01:31:22;;;;;;;;;;;7.50;98.70;;;;;;5068787;28;19974;-76
2022/02/04 01:33:49;;;;;;;;;;;7.40;98.70;;;;;;5068270;28;19916;-76
2022/02/04 01:36:15;;;;;;;;;;;7.40;98.70;;;;;;5068197;28;20325;-76
2022/02/04 01:38:40;;;;;;;;;;;7.40;98.70;;;;;;5066966;28;20011;-75
2022/02/04 01:41:08;;;;;;;;;;;7.30;98.70;;;;;;5066834;28;19993;-75
2022/02/04 01:43:34;;;;;;;;;;;7.30;98.70;;;;;;5068039;28;19913;-76
2022/02/04 01:46:03;;;;;;;;;;;7.30;98.90;;;;;;5068061;28;19948;-76
2022/02/04 01:48:31;;;;;;;;;;;7.30;98.70;;;;;;5068168;28;20295;-75
2022/02/04 01:50:56;;;;;;;;;;;7.30;98.70;;;;;;5068150;28;19909;-76
2022/02/04 01:53:28;;;;;;;;;;;7.30;98.60;;;;;;5068111;28;19920;-76
2022/02/04 01:55:58;;;;;;;;;;;7.30;98.60;;;;;;5066738;28;19909;-75
2022/02/04 01:58:24;;;;;;;;;;;7.30;98.60;;;;;;5068049;28;19930;-76
2022/02/04 02:00:49;;;;;;;;;;;7.30;98.50;;;;;;5067879;28;19913;-76
2022/02/04 02:03:15;;;;;;;;;;;7.30;98.50;;;;;;5067603;28;19936;-75
2022/02/04 02:05:40;;;;;;;;;;;7.20;98.50;;;;;;5067341;28;19912;-76
2022/02/04 02:08:07;;;;;;;;;;;7.20;98.40;;;;;;5065972;28;19913;-76
2022/02/04 02:10:33;;;;;;;;;;;7.20;98.40;;;;;;5067379;28;19966;-75
2022/02/04 02:44:36;;;;;;;;;;;7.00;98.30;;;;;;5070714;28;19913;-77
2022/02/04 02:50:09;;;;;;;;;;;6.90;98.20;;;;;;5071360;28;20009;-77
2022/02/04 03:03:15;;;;;;;;;;;6.70;98.10;;;;;;5071195;28;19974;-76
2022/02/04 03:05:41;;;;;;;;;;;6.70;98.10;;;;;;5071071;28;19999;-76
2022/02/04 03:08:06;;;;;;;;;;;6.70;98.10;;;;;;5070928;28;19995;-77
2022/02/04 03:10:32;;;;;;;;;;;6.60;98.10;;;;;;5069498;28;19915;-76
2022/02/04 03:12:58;;;;;;;;;;;6.60;98.00;;;;;;5069412;28;19935;-75
2022/02/04 03:15:23;;;;;;;;;;;6.50;98.00;;;;;;5071378;28;19924;-76
2022/02/04 03:17:59;;;;;;;;;;;6.50;98.10;;;;;;5069679;28;19958;-76
2022/02/04 03:20:25;;;;;;;;;;;6.40;98.10;;;;;;5070932;28;19944;-76
2022/02/04 03:22:52;;;;;;;;;;;6.40;98.10;;;;;;5070589;28;19963;-76
2022/02/04 03:25:21;;;;;;;;;;;6.40;98.10;;;;;;5070664;28;20358;-76
2022/02/04 03:27:53;;;;;;;;;;;6.30;98.00;;;;;;5070644;28;19908;-76
2022/02/04 03:30:26;;;;;;;;;;;6.30;98.00;;;;;;5070378;28;19927;-76
2022/02/04 03:32:56;;;;;;;;;;;6.20;98.20;;;;;;5069580;28;20069;-75
2022/02/04 03:35:23;;;;;;;;;;;6.10;97.90;;;;;;5070512;28;19990;-76
2022/02/04 03:37:50;;;;;;;;;;;6.00;97.90;;;;;;5070518;28;19916;-76
2022/02/04 03:40:17;;;;;;;;;;;5.90;97.90;;;;;;5070275;28;19928;-76
2022/02/04 03:42:43;;;;;;;;;;;5.90;98.00;;;;;;5068938;28;19935;-76
2022/02/04 03:45:09;;;;;;;;;;;5.80;98.00;;;;;;5068981;28;19962;-76
2022/02/04 03:47:34;;;;;;;;;;;5.70;98.10;;;;;;5070332;28;20404;-76
2022/02/04 03:50:00;;;;;;;;;;;5.60;98.10;;;;;;5068956;28;19912;-76
2022/02/04 03:52:25;;;;;;;;;;;5.60;98.10;;;;;;5070068;28;19913;-76
2022/02/04 03:54:51;;;;;;;;;;;5.50;98.00;;;;;;5070216;28;19923;-76
2022/02/04 03:57:17;;;;;;;;;;;5.40;98.00;;;;;;5069028;28;19913;-76
2022/02/04 03:59:42;;;;;;;;;;;5.40;98.10;;;;;;5068877;28;19919;-76
2022/02/04 04:02:08;;;;;;;;;;;5.30;98.00;;;;;;5068843;28;19920;-76
2022/02/04 04:04:34;;;;;;;;;;;5.30;98.10;;;;;;5070112;28;19920;-76
2022/02/04 04:07:01;;;;;;;;;;;5.30;98.10;;;;;;5068699;28;19913;-77
2022/02/04 04:09:27;;;;;;;;;;;5.20;98.10;;;;;;5069924;28;19909;-76
2022/02/04 04:11:53;;;;;;;;;;;5.20;98.10;;;;;;5069727;28;20416;-76
2022/02/04 04:14:19;;;;;;;;;;;5.10;98.10;;;;;;5069740;28;20394;-75
2022/02/04 04:16:46;;;;;;;;;;;5.10;98.10;;;;;;5069967;28;19916;-77
2022/02/04 04:19:12;;;;;;;;;;;5.00;98.20;;;;;;5068237;28;20259;-77
2022/02/04 04:21:37;;;;;;;;;;;5.00;98.20;;;;;;5069478;28;19912;-76
2022/02/04 04:24:03;;;;;;;;;;;4.90;98.20;;;;;;5069533;28;19919;-76
2022/02/04 04:26:29;;;;;;;;;;;4.90;98.30;;;;;;5069427;28;19920;-76
2022/02/04 04:28:54;;;;;;;;;;;4.90;98.30;;;;;;5068068;28;19960;-76
2022/02/04 04:31:20;;;;;;;;;;;4.80;98.40;;;;;;5069218;28;19924;-76
2022/02/04 04:33:45;;;;;;;;;;;4.80;98.40;;;;;;5068008;28;20397;-77
2022/02/04 04:36:11;;;;;;;;;;;4.70;98.40;;;;;;5069234;28;19912;-77
2022/02/04 04:38:46;;;;;;;;;;;4.70;98.50;;;;;;5069313;28;19920;-76
2022/02/04 04:41:24;;;;;;;;;;;4.70;98.50;;;;;;5069594;28;19923;-76
2022/02/04 05:30:06;;;;;;;;;;;4.40;99.00;;;;;;5068219;28;19928;-76
2022/02/04 05:32:31;;;;;;;;;;;4.40;99.00;;;;;;5068190;28;20321;-76
2022/02/04 05:34:57;;;;;;;;;;;4.30;99.00;;;;;;5067098;28;20309;-76
2022/02/04 05:37:24;;;;;;;;;;;4.30;98.90;;;;;;5068230;28;19982;-76
2022/02/04 05:42:23;;;;;;;;;;;4.30;99.00;;;;;;5068009;28;19919;-76
2022/02/04 05:44:56;;;;;;;;;;;4.30;99.00;;;;;;5067197;28;19916;-76
2022/02/04 05:47:22;;;;;;;;;;;4.20;99.00;;;;;;5068201;28;19913;-76
2022/02/04 05:52:50;;;;;;;;;;;4.30;99.10;;;;;;5026158;28;19966;-76
2022/02/04 05:55:48;;;;;;;;;;;4.30;99.10;;;;;;5067603;28;19920;-76
2022/02/04 06:24:33;;;;;;;;;;;4.50;99.10;;;;;;5068238;28;19973;-76
2022/02/04 06:26:59;;;;;;;;;;;4.50;99.10;;;;;;5067816;28;20331;-76
2022/02/04 06:29:24;;;;;;;;;;;4.50;99.10;;;;;;5067491;28;19927;-76
2022/02/04 06:31:50;;;;;;;;;;;4.60;99.00;;;;;;5067975;28;19912;-76
2022/02/04 06:34:15;;;;;;;;;;;4.60;99.00;;;;;;5067653;28;20003;-77
2022/02/04 06:36:41;;;;;;;;;;;4.60;99.10;;;;;;5067689;28;20278;-76
2022/02/04 06:39:07;;;;;;;;;;;4.70;99.10;;;;;;5067175;28;20014;-77
2022/02/04 06:41:32;;;;;;;;;;;4.70;99.10;;;;;;5067091;28;20365;-76
2022/02/04 06:44:02;;;;;;;;;;;4.80;99.00;;;;;;5067940;28;19908;-77
2022/02/04 06:46:27;;;;;;;;;;;4.80;99.00;;;;;;5067611;28;19916;-77
2022/02/04 06:48:53;;;;;;;;;;;4.80;99.00;;;;;;5067564;28;19912;-76
2022/02/04 06:51:19;;;;;;;;;;;4.80;98.90;;;;;;5066510;28;19913;-77
2022/02/04 06:53:44;;;;;;;;;;;4.80;98.90;;;;;;5067307;28;19921;-77
2022/02/04 06:56:10;;;;;;;;;;;4.80;98.90;;;;;;5067070;28;19962;-76
2022/02/04 06:58:36;;;;;;;;;;;4.80;99.00;;;;;;5066934;28;19909;-76
2022/02/04 07:01:01;;;;;;;;;;;4.80;99.00;;;;;;5067245;28;20350;-76
2022/02/04 07:03:27;;;;;;;;;;;4.80;99.00;;;;;;5067398;28;19917;-76
2022/02/04 07:05:57;;;;;;;;;;;4.90;99.10;;;;;;5067264;28;20278;-76
2022/02/04 07:14:16;;;;;;;;;;;4.70;98.80;;;;;;5070879;28;20022;-77
2022/02/04 07:17:33;;;;;;;;;;;4.70;98.80;;;;;;5070933;28;19913;-77
2022/02/04 07:19:46;;;;;;;;;;;4.60;98.80;;;;;;5056229;28;19916;-76
2022/02/04 07:22:13;;;;;;;;;;;4.50;98.80;;;;;;5070611;28;19917;-76
2022/02/04 07:24:39;;;;;;;;;;;4.50;98.90;;;;;;5070478;28;20410;-77
2022/02/04 07:27:05;;;;;;;;;;;4.40;98.90;;;;;;5069121;28;19912;-76
2022/02/04 07:29:31;;;;;;;;;;;4.40;99.00;;;;;;5070071;28;19927;-75
2022/02/04 07:31:59;;;;;;;;;;;4.40;99.10;;;;;;5070461;28;19908;-76
2022/02/04 07:35:00;;;;;;;;;;;4.40;99.10;;;;;;5052667;28;20290;-76
2022/02/04 07:42:39;;;;;;;;;;;4.40;99.10;;;;;;5070214;28;19981;-76
2022/02/04 07:45:05;;;;;;;;;;;4.40;99.10;;;;;;5068698;28;19920;-76
2022/02/04 07:47:31;;;;;;;;;;;4.40;99.10;;;;;;5069940;28;19909;-77
2022/02/04 07:49:56;;;;;;;;;;;4.40;99.20;;;;;;5070016;28;20289;-76
2022/02/04 07:52:22;;;;;;;;;;;4.40;99.30;;;;;;5069632;28;19908;-76
2022/02/04 07:54:47;;;;;;;;;;;4.40;99.30;;;;;;5069710;28;20019;-77
2022/02/04 07:57:13;;;;;;;;;;;4.40;99.40;;;;;;5069714;28;19928;-76
2022/02/04 07:59:39;;;;;;;;;;;4.40;99.20;;;;;;5069289;28;19975;-76
2022/02/04 08:02:05;;;;;;;;;;;4.40;99.20;;;;;;5069838;28;20343;-76
2022/02/04 08:04:33;;;;;;;;;;;4.40;99.10;;;;;;5069652;28;19908;-76
2022/02/04 08:07:09;;;;;;;;;;;4.40;99.20;;;;;;5069606;28;19940;-76
2022/02/04 08:20:49;;;;;;;;;;;4.20;99.30;;;;;;5069517;28;19934;-76
2022/02/04 08:59:45;;;;;;;;;;;4.80;99.80;;;;;;5067737;28;19997;-76
2022/02/04 09:02:33;;;;;;;;;;;4.90;99.70;;;;;;5067866;28;19920;-76
2022/02/04 09:04:58;;;;;;;;;;;5.00;99.60;;;;;;5067859;28;19912;-76
2022/02/04 09:07:27;;;;;;;;;;;5.00;99.60;;;;;;5068147;28;19959;-76
2022/02/04 09:09:56;;;;;;;;;;;5.10;99.80;;;;;;5074119;28;19916;-76
2022/02/04 09:20:24;;;;;;;;;;;5.00;99.30;;;;;;5087742;28;19915;-78
2022/02/04 09:22:50;;;;;;;;;;;5.00;99.60;;;;;;5086004;28;20023;-78
2022/02/04 09:25:16;;;;;;;;;;;5.00;99.40;;;;;;5086534;28;20381;-77
2022/02/04 09:27:41;;;;;;;;;;;5.10;99.40;;;;;;5086565;28;19908;-76
2022/02/04 09:30:12;;;;;;;;;;;5.20;99.70;;;;;;5086768;28;19924;-76
2022/02/04 09:32:39;;;;;;;;;;;5.50;99.90;;;;;;5086347;28;20348;-77
2022/02/04 09:35:08;;;;;;;;;;;6.10;99.90;;;;;;5088517;28;19934;-74
2022/02/04 09:37:34;;;;;;;;;;;6.90;99.90;;;;;;5086504;28;19916;-74
2022/02/04 09:40:00;;;;;;;;;;;7.50;99.90;;;;;;5089774;28;19912;-75
2022/02/04 09:42:26;;;;;;;;;;;8.30;99.90;;;;;;5086265;28;20354;-76
2022/02/04 09:44:52;;;;;;;;;;;9.10;99.90;;;;;;5088385;28;20273;-75
2022/02/04 09:47:18;;;;;;;;;;;9.80;98.90;;;;;;5087529;28;20003;-75
2022/02/04 09:49:48;;;;;;;;;;;10.30;98.40;;;;;;5087676;28;20193;-75
2022/02/04 10:08:55;;;;;;;;;;;9.00;94.70;;;;;;5095883;28;19927;-76
2022/02/04 10:14:07;;;;;;;;;;;8.10;94.90;;;;;;5088356;28;19912;-76
2022/02/04 10:19:29;;;;;;;;;;;7.60;95.70;;;;;;5086667;28;19923;-76
2022/02/04 10:21:58;;;;;;;;;;;8.30;97.90;;;;;;5086674;28;19916;-76
2022/02/04 10:24:26;;;;;;;;;;;9.60;98.50;;;;;;5087683;28;20314;-77
2022/02/04 10:27:13;;;;;;;;;;;10.50;97.40;;;;;;5088057;28;20373;-77
2022/02/04 10:29:39;;;;;;;;;;;11.40;96.60;;;;;;5088318;28;19927;-76
2022/02/04 10:32:05;;;;;;;;;;;12.30;96.60;;;;;;5087962;28;20297;-77
2022/02/04 10:34:32;;;;;;;;;;;13.00;95.50;;;;;;5087099;28;19973;-77
2022/02/04 10:37:02;;;;;;;;;;;13.40;94.70;;;;;;5087042;28;19913;-64
2022/02/04 10:42:10;;;;;;;;;;;14.10;92.80;;;;;;5090921;28;19960;-78
2022/02/04 10:44:53;;;;;;;;;;;14.50;92.90;;;;;;5091583;28;19999;-77
2022/02/04 10:56:30;;;;;;;;;;;15.80;89.20;;;;;;5077993;28;19916;-76
2022/02/04 10:59:25;;;;;;;;;;;15.80;90.00;;;;;;5082163;28;19931;-76
2022/02/04 11:34:58;;;;;;;;;;;17.00;80.50;;;;;;5091230;28;19972;-76
2022/02/04 11:52:26;;;;;;;;;;;16.00;79.10;;;;;;5091266;28;20369;-76
2022/02/04 11:54:55;;;;;;;;;;;16.10;76.90;;;;;;5092130;28;19908;-73
2022/02/04 11:57:28;;;;;;;;;;;15.90;77.60;;;;;;5091688;28;19990;-76
2022/02/04 11:59:56;;;;;;;;;;;15.80;75.70;;;;;;5086301;28;19915;-76
2022/02/04 12:02:25;;;;;;;;;;;15.40;74.60;;;;;;5089703;28;19919;-79
2022/02/04 12:05:11;;;;;;;;;;;15.20;76.60;;;;;;5090275;28;19909;-75
2022/02/04 12:07:40;;;;;;;;;;;15.40;77.80;;;;;;5090690;28;19996;-75
2022/02/04 12:10:11;;;;;;;;;;;15.50;76.30;;;;;;5090108;28;20003;-77
2022/02/04 12:12:52;;;;;;;;;;;15.40;74.90;;;;;;5089780;28;19924;-77
2022/02/04 12:15:37;;;;;;;;;;;15.50;76.40;;;;;;5089857;28;19915;-77
2022/02/04 12:18:02;;;;;;;;;;;15.80;77.30;;;;;;5090128;28;19931;-78
2022/02/04 12:20:46;;;;;;;;;;;16.00;75.60;;;;;;5087058;28;20366;-77
2022/02/04 12:23:24;;;;;;;;;;;15.90;75.90;;;;;;5078502;28;19956;-78
2022/02/04 12:25:52;;;;;;;;;;;15.80;73.70;;;;;;5088300;28;19908;-77
2022/02/04 12:28:37;;;;;;;;;;;15.70;73.30;;;;;;5089868;28;19908;-76
2022/02/04 12:31:09;;;;;;;;;;;15.50;72.20;;;;;;5089452;28;19924;-77
2022/02/04 12:33:45;;;;;;;;;;;15.30;73.10;;;;;;5089982;28;20281;-78
2022/02/04 12:36:15;;;;;;;;;;;15.30;72.90;;;;;;5089868;28;19999;-76
2022/02/04 12:38:41;;;;;;;;;;;15.20;73.00;;;;;;5090033;28;19996;-78
2022/02/04 12:41:07;;;;;;;;;;;14.70;71.50;;;;;;5089640;28;19970;-76
2022/02/04 12:43:36;;;;;;;;;;;14.10;71.20;;;;;;5089985;28;19916;-77
2022/02/04 12:46:02;;;;;;;;;;;13.80;72.70;;;;;;5090121;28;19908;-77
2022/02/04 12:48:28;;;;;;;;;;;13.70;73.20;;;;;;5088947;28;19908;-77
2022/02/04 12:50:54;;;;;;;;;;;13.60;73.40;;;;;;5090140;28;20582;-75
2022/02/04 12:53:28;;;;;;;;;;;13.50;73.80;;;;;;5089990;28;19917;-77
2022/02/04 12:56:07;;;;;;;;;;;13.30;73.10;;;;;;5089655;28;20016;-77
2022/02/04 12:58:44;;;;;;;;;;;13.00;73.00;;;;;;5087703;28;19908;-77
2022/02/04 13:10:02;;;;;;;;;;;11.90;74.40;;;;;;5087585;28;19915;-78
2022/02/04 13:12:20;;;;;;;;;;;11.80;74.60;;;;;;5080010;28;19919;-77
2022/02/04 13:14:47;;;;;;;;;;;11.80;74.90;;;;;;5090242;28;20382;-77
2022/02/04 13:17:27;;;;;;;;;;;11.80;75.30;;;;;;5088268;28;20321;-76
2022/02/04 13:19:52;;;;;;;;;;;11.90;74.50;;;;;;5084245;28;19908;-77
2022/02/04 13:22:21;;;;;;;;;;;11.70;74.50;;;;;;5088512;28;20277;-76
2022/02/04 13:25:03;;;;;;;;;;;11.60;74.30;;;;;;5086713;28;20574;-76
2022/02/04 13:27:34;;;;;;;;;;;11.30;74.00;;;;;;5079966;28;20270;-76
2022/02/04 13:30:19;;;;;;;;;;;11.20;75.20;;;;;;5075931;28;19928;-77
2022/02/04 13:32:45;;;;;;;;;;;11.30;75.60;;;;;;5081013;28;20003;-77
2022/02/04 13:35:32;;;;;;;;;;;11.40;76.30;;;;;;5082013;28;20457;-74
2022/02/04 13:38:01;;;;;;;;;;;11.70;76.80;;;;;;5066527;28;20247;-75
2022/02/04 13:40:50;;;;;;;;;;;12.30;77.60;;;;;;5067993;28;19909;-75
2022/02/04 13:43:25;;;;;;;;;;;12.80;76.20;;;;;;5067524;28;20274;-73
2022/02/04 13:45:58;;;;;;;;;;;12.40;74.70;;;;;;5069017;28;19948;-76
2022/02/04 13:48:38;;;;;;;;;;;11.80;73.80;;;;;;5068383;28;19913;-75
2022/02/04 13:51:19;;;;;;;;;;;11.10;74.60;;;;;;5067100;28;19920;-76
2022/02/04 13:54:05;;;;;;;;;;;10.60;75.20;;;;;;5066539;28;19928;-77
2022/02/04 13:56:42;;;;;;;;;;;10.20;75.70;;;;;;5068562;28;19909;-76
2022/02/04 13:59:34;;;;;;;;;;;9.90;76.30;;;;;;5068428;28;20065;-76
2022/02/04 14:02:07;;;;;;;;;;;9.70;77.10;;;;;;5068539;28;19973;-76
2022/02/04 14:04:33;;;;;;;;;;;9.60;77.20;;;;;;5085445;28;20360;-74
2022/02/04 14:07:05;;;;;;;;;;;9.50;77.90;;;;;;5089702;28;19944;-76
2022/02/04 14:09:34;;;;;;;;;;;9.60;78.30;;;;;;5087650;28;20387;-75
2022/02/04 14:11:59;;;;;;;;;;;9.60;78.10;;;;;;5088790;28;20021;-77
2022/02/04 14:14:26;;;;;;;;;;;9.50;78.00;;;;;;5086951;28;20369;-75
2022/02/04 14:16:53;;;;;;;;;;;9.40;78.30;;;;;;5090968;28;20025;-75
2022/02/04 14:19:20;;;;;;;;;;;9.50;79.50;;;;;;5091791;28;20370;-75
2022/02/04 14:21:45;;;;;;;;;;;9.60;79.60;;;;;;5093423;28;19916;-77
2022/02/04 14:24:12;;;;;;;;;;;9.60;79.20;;;;;;5092773;28;20405;-76
2022/02/04 14:26:44;;;;;;;;;;;9.50;79.10;;;;;;5091917;28;19912;-78
2022/02/04 14:29:24;;;;;;;;;;;9.40;79.20;;;;;;5091095;28;19950;-76
2022/02/04 14:32:03;;;;;;;;;;;9.40;79.50;;;;;;5091406;28;20007;-76
2022/02/04 14:34:51;;;;;;;;;;;9.50;79.70;;;;;;5091446;28;19912;-77
2022/02/04 14:53:40;;;;;;;;;;;8.80;79.90;;;;;;5091001;28;19974;-75
2022/02/04 15:01:22;;;;;;;;;;;8.00;81.40;;;;;;5090579;28;19931;-75
2022/02/04 15:04:07;;;;;;;;;;;7.90;81.70;;;;;;5091760;28;19920;-71
2022/02/04 15:06:40;;;;;;;;;;;7.80;81.90;;;;;;5091395;28;19997;-74
2022/02/04 15:09:08;;;;;;;;;;;7.70;82.40;;;;;;5091580;28;19915;-75
2022/02/04 15:11:35;;;;;;;;;;;7.70;82.80;;;;;;5091686;28;20273;-76
2022/02/04 15:14:03;;;;;;;;;;;7.70;82.90;;;;;;5091798;28;20345;-75
2022/02/04 15:16:29;;;;;;;;;;;7.70;83.30;;;;;;5092093;28;19930;-74
2022/02/04 15:18:55;;;;;;;;;;;7.70;83.30;;;;;;5091893;28;19957;-76
2022/02/04 15:21:22;;;;;;;;;;;7.70;83.50;;;;;;5091795;28;20358;-76
2022/02/04 15:23:50;;;;;;;;;;;7.70;83.40;;;;;;5091639;28;19920;-70
2022/02/04 15:26:17;;;;;;;;;;;7.80;83.60;;;;;;5091918;28;19923;-75
2022/02/04 15:28:46;;;;;;;;;;;7.80;83.80;;;;;;5090757;28;19920;-75
2022/02/04 15:31:57;;;;;;;;;;;7.70;83.70;;;;;;5090096;28;20270;-72
2022/02/04 15:34:02;;;;;;;;;;;7.80;84.10;;;;;;5085993;28;20372;-76
2022/02/04 15:36:34;;;;;;;;;;;7.70;84.20;;;;;;5073718;28;19950;-76
2022/02/04 15:39:01;;;;;;;;;;;7.70;84.80;;;;;;5082973;28;19935;-75
2022/02/04 15:41:28;;;;;;;;;;;7.60;84.40;;;;;;5091949;28;20265;-76
2022/02/04 15:43:57;;;;;;;;;;;7.50;84.50;;;;;;5092042;28;19935;-77
2022/02/04 15:54:46;;;;;;;;;;;7.20;85.20;;;;;;5064367;28;19919;-74
2022/02/04 16:05:42;;;;;;;;;;;7.10;85.90;;;;;;5087343;28;20011;-75
2022/02/04 16:08:10;;;;;;;;;;;7.10;86.10;;;;;;5086461;28;19924;-76
2022/02/04 16:10:55;;;;;;;;;;;7.00;86.20;;;;;;5085009;28;19912;-77
2022/02/04 16:13:34;;;;;;;;;;;7.00;86.40;;;;;;5085091;28;20316;-76
2022/02/04 16:16:22;;;;;;;;;;;7.00;86.60;;;;;;5088621;28;19912;-74
2022/02/04 16:19:00;;;;;;;;;;;6.90;86.60;;;;;;5083004;28;19916;-75
2022/02/04 16:21:38;;;;;;;;;;;6.90;86.80;;;;;;5088484;28;19912;-74
2022/02/04 16:26:58;;;;;;;;;;;6.90;87.00;;;;;;5086161;28;20475;-76
2022/02/04 16:29:24;;;;;;;;;;;6.90;87.10;;;;;;5089600;28;19920;-75
2022/02/04 16:31:50;;;;;;;;;;;6.90;87.20;;;;;;5090478;28;20347;-76
2022/02/04 16:34:15;;;;;;;;;;;6.80;87.20;;;;;;5089872;28;19962;-74
2022/02/04 16:36:44;;;;;;;;;;;6.80;87.30;;;;;;5090112;28;20347;-76
2022/02/04 16:39:11;;;;;;;;;;;6.80;87.40;;;;;;5088948;28;19916;-76
2022/02/04 16:41:53;;;;;;;;;;;6.80;87.50;;;;;;5088587;28;19908;-73
2022/02/04 16:44:19;;;;;;;;;;;6.70;87.60;;;;;;5088795;28;19912;-74
2022/02/04 16:46:46;;;;;;;;;;;6.70;87.70;;;;;;5089644;28;19990;-75
2022/02/04 16:49:12;;;;;;;;;;;6.70;87.80;;;;;;5089946;28;20007;-75
2022/02/04 16:51:38;;;;;;;;;;;6.60;87.90;;;;;;5089906;28;19909;-75
2022/02/04 16:54:03;;;;;;;;;;;6.60;88.00;;;;;;5088603;28;19923;-74
2022/02/04 16:56:30;;;;;;;;;;;6.60;88.30;;;;;;5089399;28;20235;-78
2022/02/04 16:58:57;;;;;;;;;;;6.50;88.30;;;;;;5088129;28;20468;-77
2022/02/04 17:01:23;;;;;;;;;;;6.50;88.50;;;;;;5089023;28;19976;-75
2022/02/04 17:03:48;;;;;;;;;;;6.40;88.50;;;;;;5090004;28;19958;-77
2022/02/04 17:06:14;;;;;;;;;;;6.40;88.70;;;;;;5090149;28;20326;-76
2022/02/04 17:08:48;;;;;;;;;;;6.40;88.90;;;;;;5090451;28;19908;-76
2022/02/04 17:11:19;;;;;;;;;;;6.30;89.00;;;;;;5089683;28;20076;-73
2022/02/04 17:13:45;;;;;;;;;;;6.30;89.10;;;;;;5087188;28;19936;-73
2022/02/04 17:16:11;;;;;;;;;;;6.20;89.10;;;;;;5087918;28;19912;-73
2022/02/04 17:18:38;;;;;;;;;;;6.20;89.20;;;;;;5089496;28;19920;-75
2022/02/04 17:21:04;;;;;;;;;;;6.20;89.30;;;;;;5089354;28;19912;-76
2022/02/04 17:23:42;;;;;;;;;;;6.20;89.50;;;;;;5085768;28;19919;-75
2022/02/04 17:26:08;;;;;;;;;;;6.20;89.60;;;;;;5079912;28;19928;-75
2022/02/04 17:28:33;;;;;;;;;;;6.20;89.80;;;;;;5088714;28;20384;-75
2022/02/04 17:30:59;;;;;;;;;;;6.10;89.80;;;;;;5088017;28;19978;-75
2022/02/04 17:33:26;;;;;;;;;;;6.10;89.70;;;;;;5086900;28;19962;-76
2022/02/04 17:35:56;;;;;;;;;;;6.10;89.80;;;;;;5071088;28;19920;-74
2022/02/04 17:38:26;;;;;;;;;;;6.00;89.80;;;;;;5088965;28;19907;-75
2022/02/04 17:40:53;;;;;;;;;;;6.00;89.80;;;;;;5087237;28;19919;-78
2022/02/04 17:43:19;;;;;;;;;;;6.00;89.90;;;;;;5087400;28;19955;-77
2022/02/04 17:45:45;;;;;;;;;;;6.00;89.90;;;;;;5089339;28;19919;-75
2022/02/04 17:48:21;;;;;;;;;;;5.90;89.90;;;;;;5089307;28;20365;-76
2022/02/04 17:50:57;;;;;;;;;;;5.90;90.00;;;;;;5088560;28;20354;-75
2022/02/04 17:53:27;;;;;;;;;;;5.90;89.90;;;;;;5087143;28;20362;-74
2022/02/04 17:56:07;;;;;;;;;;;5.80;89.90;;;;;;5087450;28;20360;-77
2022/02/04 17:58:41;;;;;;;;;;;5.80;90.00;;;;;;5088530;28;20292;-75
2022/02/04 18:06:25;;;;;;;;;;;5.70;90.00;;;;;;5087956;28;19912;-76
2022/02/04 18:08:50;;;;;;;;;;;5.70;90.10;;;;;;5087120;28;19920;-76
2022/02/04 18:11:16;;;;;;;;;;;5.60;90.20;;;;;;5086817;28;19912;-76
2022/02/04 18:13:41;;;;;;;;;;;5.60;90.30;;;;;;5087712;28;19962;-75
2022/02/04 18:16:07;;;;;;;;;;;5.60;90.40;;;;;;5088658;28;19994;-74
2022/02/04 18:18:33;;;;;;;;;;;5.50;90.40;;;;;;5087731;28;20547;-74
2022/02/04 18:21:01;;;;;;;;;;;5.60;90.60;;;;;;5088957;28;20270;-75
2022/02/04 18:23:27;;;;;;;;;;;5.50;90.50;;;;;;5071236;28;20273;-74
2022/02/04 18:25:53;;;;;;;;;;;5.50;90.60;;;;;;5088841;28;19908;-72
2022/02/04 18:28:20;;;;;;;;;;;5.50;90.70;;;;;;5088954;28;19912;-75
2022/02/04 18:30:46;;;;;;;;;;;5.50;90.70;;;;;;5088143;28;19924;-76
2022/02/04 18:33:13;;;;;;;;;;;5.50;90.80;;;;;;5088187;28;19923;-73
2022/02/04 18:35:39;;;;;;;;;;;5.50;90.90;;;;;;5088730;28;20561;-74
2022/02/04 18:38:16;;;;;;;;;;;5.50;91.00;;;;;;5088046;28;19932;-74
2022/02/04 18:46:01;;;;;;;;;;;5.50;91.30;;;;;;5088899;28;20384;-73
2022/02/04 18:48:30;;;;;;;;;;;5.50;91.30;;;;;;5088196;28;20019;-73
2022/02/04 18:58:45;;;;;;;;;;;5.40;91.50;;;;;;5069343;28;20252;-73
2022/02/04 19:01:14;;;;;;;;;;;5.40;91.80;;;;;;5085842;28;19917;-72
2022/02/04 19:03:46;;;;;;;;;;;5.40;91.60;;;;;;5088412;28;20326;-74
2022/02/04 19:06:24;;;;;;;;;;;5.40;91.70;;;;;;5088881;28;20056;-74
2022/02/04 19:08:56;;;;;;;;;;;5.40;91.70;;;;;;5088662;28;19919;-74
2022/02/04 19:11:29;;;;;;;;;;;5.40;91.80;;;;;;5089010;28;19934;-74
2022/02/04 19:14:07;;;;;;;;;;;5.30;91.80;;;;;;5089911;28;19930;-75
2022/02/04 19:19:49;;;;;;;;;;;5.30;91.90;;;;;;5089923;28;19912;-74
2022/02/04 19:24:37;;;;;;;;;;;5.30;92.00;;;;;;5090255;28;20388;-74
2022/02/04 19:27:03;;;;;;;;;;;5.20;92.00;;;;;;5089955;28;19944;-75
2022/02/04 19:29:29;;;;;;;;;;;5.20;92.10;;;;;;5089662;28;19924;-75
2022/02/04 19:31:56;;;;;;;;;;;5.20;92.10;;;;;;5088174;28;19993;-74
2022/02/04 19:34:26;;;;;;;;;;;5.20;92.20;;;;;;5089561;28;19908;-74
2022/02/04 19:36:52;;;;;;;;;;;5.20;92.30;;;;;;5089935;28;20247;-74
2022/02/04 19:39:18;;;;;;;;;;;5.10;92.30;;;;;;5089702;28;19912;-75
2022/02/04 19:41:51;;;;;;;;;;;5.10;92.40;;;;;;5089682;28;19923;-75
2022/02/04 19:44:17;;;;;;;;;;;5.10;92.70;;;;;;5090076;28;20355;-75
2022/02/04 19:46:43;;;;;;;;;;;5.10;92.50;;;;;;5071658;28;20251;-75
2022/02/04 19:49:13;;;;;;;;;;;5.10;92.70;;;;;;5089212;28;19958;-74
2022/02/04 20:23:53;;;;;;;;;;;5.00;93.30;;;;;;5090220;28;19977;-70
2022/02/04 20:26:20;;;;;;;;;;;5.00;93.40;;;;;;5089542;28;19912;-75
2022/02/04 20:28:46;;;;;;;;;;;5.00;93.40;;;;;;5089591;28;19942;-74
2022/02/04 20:31:14;;;;;;;;;;;5.00;93.40;;;;;;5089468;28;19924;-75
2022/02/04 20:33:40;;;;;;;;;;;5.00;93.50;;;;;;5089741;28;20323;-74
2022/02/04 20:36:05;;;;;;;;;;;5.00;93.50;;;;;;5088214;28;20003;-74
2022/02/04 20:38:41;;;;;;;;;;;5.00;93.50;;;;;;5089692;28;20337;-74
2022/02/04 20:41:09;;;;;;;;;;;4.90;93.70;;;;;;5089767;28;19912;-74
2022/02/04 20:43:36;;;;;;;;;;;4.90;93.60;;;;;;5090253;28;20327;-74
2022/02/04 20:46:02;;;;;;;;;;;4.90;93.60;;;;;;5089663;28;19923;-74
2022/02/04 20:48:32;;;;;;;;;;;4.80;93.60;;;;;;5087653;28;19912;-74
2022/02/04 20:50:58;;;;;;;;;;;4.80;93.60;;;;;;5087512;28;19926;-74
2022/02/04 20:53:23;;;;;;;;;;;4.80;93.70;;;;;;5089007;28;19912;-74
2022/02/04 20:55:49;;;;;;;;;;;4.80;93.70;;;;;;5087254;28;19908;-74
2022/02/04 20:58:15;;;;;;;;;;;4.70;93.80;;;;;;5087820;28;19915;-74
2022/02/04 21:00:40;;;;;;;;;;;4.80;93.80;;;;;;5088490;28;19981;-74
2022/02/04 21:03:09;;;;;;;;;;;4.80;93.90;;;;;;5088671;28;19985;-74
2022/02/04 21:05:44;;;;;;;;;;;4.80;94.00;;;;;;5089846;28;19916;-74
2022/02/04 21:15:51;;;;;;;;;;;4.90;94.10;;;;;;5088669;28;20341;-74
2022/02/04 21:18:16;;;;;;;;;;;4.90;94.10;;;;;;5088188;28;19908;-74
2022/02/04 21:20:42;;;;;;;;;;;4.90;94.10;;;;;;5088358;28;19946;-74
2022/02/04 21:23:10;;;;;;;;;;;4.90;94.10;;;;;;5088213;28;19955;-74
2022/02/04 21:25:39;;;;;;;;;;;4.80;94.10;;;;;;5087200;28;20293;-74
2022/02/04 21:28:08;;;;;;;;;;;4.80;94.10;;;;;;5088171;28;19913;-74
2022/02/04 21:30:35;;;;;;;;;;;4.80;94.10;;;;;;5087888;28;20007;-74
2022/02/04 21:33:02;;;;;;;;;;;4.80;94.20;;;;;;5086568;28;20333;-74
2022/02/04 21:38:13;;;;;;;;;;;4.80;94.30;;;;;;5086957;28;19982;-74
2022/02/04 21:40:39;;;;;;;;;;;4.80;94.30;;;;;;5087427;28;19916;-74
2022/02/04 21:43:05;;;;;;;;;;;4.80;94.30;;;;;;5086666;28;19920;-74
2022/02/04 21:45:35;;;;;;;;;;;4.80;94.30;;;;;;5086311;28;20435;-74
2022/02/04 21:48:03;;;;;;;;;;;4.80;94.20;;;;;;5086344;28;20014;-74
2022/02/04 21:50:31;;;;;;;;;;;4.80;94.20;;;;;;5087771;28;19931;-75
2022/02/04 21:52:57;;;;;;;;;;;4.80;94.20;;;;;;5087690;28;19912;-74
2022/02/04 21:55:23;;;;;;;;;;;4.70;94.20;;;;;;5087829;28;20419;-74
2022/02/04 21:57:48;;;;;;;;;;;4.70;94.20;;;;;;5087956;28;19999;-74
2022/02/04 22:00:14;;;;;;;;;;;4.70;94.30;;;;;;5087709;28;20007;-74
2022/02/04 22:02:40;;;;;;;;;;;4.70;94.30;;;;;;5087531;28;20416;-74